createdAt,value
2018-01-15T00:00:53.565Z,6.40
2018-01-15T00:03:20.153Z,7.10
2018-01-15T00:05:46.738Z,6.37
2018-01-15T00:08:13.331Z,6.37
2018-01-15T00:10:39.973Z,7.57
2018-01-15T00:13:06.565Z,6.97
2018-01-15T00:15:33.144Z,7.53
2018-01-15T00:17:59.712Z,6.67
2018-01-15T00:20:26.329Z,6.37
2018-01-15T00:22:52.928Z,6.43
2018-01-15T00:25:19.596Z,7.00
2018-01-15T00:27:46.192Z,7.03
2018-01-15T00:30:13.655Z,6.03
2018-01-15T00:32:41.076Z,6.97
2018-01-15T00:35:07.828Z,7.00
2018-01-15T00:37:34.436Z,7.00
2018-01-15T00:40:01.211Z,6.70
2018-01-15T00:42:27.969Z,7.27
2018-01-15T00:44:55.101Z,7.17
2018-01-15T00:47:21.862Z,7.00
2018-01-15T00:49:48.604Z,6.43
2018-01-15T00:52:15.357Z,6.87
2018-01-15T00:54:41.968Z,6.80
2018-01-15T00:57:08.670Z,6.17
2018-01-15T00:59:35.243Z,6.40
2018-01-15T01:02:02.494Z,7.40
2018-01-15T01:04:29.146Z,7.10
2018-01-15T01:06:55.924Z,7.80
2018-01-15T01:09:22.838Z,7.20
2018-01-15T01:11:49.587Z,7.50
2018-01-15T01:14:16.268Z,7.37
2018-01-15T01:16:43.107Z,7.20
2018-01-15T01:19:09.779Z,6.27
2018-01-15T01:21:36.624Z,6.97
2018-01-15T01:24:03.241Z,7.27
2018-01-15T01:26:29.850Z,7.10
2018-01-15T01:28:56.437Z,6.63
2018-01-15T01:31:23.104Z,7.50
2018-01-15T01:33:49.764Z,6.60
2018-01-15T01:36:17.164Z,7.30
2018-01-15T01:38:43.739Z,7.90
2018-01-15T01:41:10.387Z,6.70
2018-01-15T01:43:36.960Z,7.13
2018-01-15T01:46:04.379Z,6.77
2018-01-15T01:48:30.961Z,6.10
2018-01-15T01:50:58.462Z,6.90
2018-01-15T01:53:25.060Z,6.60
2018-01-15T01:55:52.420Z,6.90
2018-01-15T01:58:19.751Z,6.17
2018-01-15T02:00:46.436Z,6.37
2018-01-15T02:03:13.080Z,6.43
2018-01-15T02:05:39.726Z,6.30
2018-01-15T02:08:06.311Z,6.43
2018-01-15T02:10:32.899Z,6.43
2018-01-15T02:13:00.237Z,6.90
2018-01-15T02:15:26.842Z,6.70
2018-01-15T02:17:53.501Z,6.73
2018-01-15T02:20:20.135Z,6.67
2018-01-15T02:22:46.748Z,6.40
2018-01-15T02:25:13.348Z,7.10
2018-01-15T02:27:40.042Z,6.30
2018-01-15T02:30:06.685Z,6.57
2018-01-15T02:32:33.364Z,6.40
2018-01-15T02:35:00.208Z,6.93
2018-01-15T02:37:26.943Z,6.63
2018-01-15T02:39:53.701Z,5.90
2018-01-15T02:42:20.508Z,7.10
2018-01-15T02:44:47.236Z,7.17
2018-01-15T02:47:14.668Z,6.77
2018-01-15T02:49:41.506Z,6.40
2018-01-15T02:52:08.344Z,6.13
2018-01-15T02:54:35.080Z,6.37
2018-01-15T02:57:01.731Z,6.40
2018-01-15T02:59:28.382Z,6.90
2018-01-15T03:01:55.234Z,6.77
2018-01-15T03:04:21.980Z,6.93
2018-01-15T03:06:48.823Z,6.10
2018-01-15T03:09:15.559Z,6.60
2018-01-15T03:11:42.158Z,6.80
2018-01-15T03:14:09.667Z,6.87
2018-01-15T03:16:36.410Z,6.60
2018-01-15T03:19:03.030Z,7.00
2018-01-15T03:21:29.796Z,6.50
2018-01-15T03:23:56.546Z,6.70
2018-01-15T03:26:23.305Z,6.17
2018-01-15T03:28:50.205Z,6.87
2018-01-15T03:31:16.885Z,6.37
2018-01-15T03:33:43.731Z,6.77
2018-01-15T03:36:10.325Z,6.20
2018-01-15T03:38:37.805Z,6.60
2018-01-15T03:41:04.381Z,6.53
2018-01-15T03:43:31.088Z,6.70
2018-01-15T03:45:57.675Z,6.77
2018-01-15T03:48:24.431Z,6.77
2018-01-15T03:50:51.245Z,6.60
2018-01-15T03:53:17.825Z,6.43
2018-01-15T03:55:44.488Z,7.20
2018-01-15T03:58:11.892Z,6.47
2018-01-15T04:00:38.560Z,6.60
2018-01-15T04:03:05.192Z,6.77
2018-01-15T04:05:31.943Z,6.93
2018-01-15T04:07:58.652Z,6.20
2018-01-15T04:10:25.428Z,6.80
2018-01-15T04:12:52.087Z,5.97
2018-01-15T04:15:18.802Z,6.60
2018-01-15T04:17:45.497Z,7.40
2018-01-15T04:20:12.343Z,7.30
2018-01-15T04:22:39.163Z,6.97
2018-01-15T04:25:05.906Z,6.60
2018-01-15T04:27:32.646Z,6.90
2018-01-15T04:29:59.300Z,6.70
2018-01-15T04:32:26.054Z,6.90
2018-01-15T04:34:52.818Z,6.73
2018-01-15T04:37:19.633Z,6.73
2018-01-15T04:39:46.236Z,7.23
2018-01-15T04:42:12.839Z,6.97
2018-01-15T04:44:39.437Z,7.60
2018-01-15T04:47:06.020Z,6.73
2018-01-15T04:49:32.619Z,7.40
2018-01-15T04:51:59.206Z,7.73
2018-01-15T04:54:25.951Z,7.00
2018-01-15T04:56:52.543Z,7.67
2018-01-15T04:59:19.223Z,6.73
2018-01-15T05:01:45.980Z,7.60
2018-01-15T05:04:12.616Z,7.10
2018-01-15T05:06:39.356Z,7.53
2018-01-15T05:09:06.163Z,7.20
2018-01-15T05:11:32.908Z,7.80
2018-01-15T05:14:00.402Z,7.50
2018-01-15T05:16:27.168Z,8.27
2018-01-15T05:18:54.116Z,8.00
2018-01-15T05:21:20.861Z,8.00
2018-01-15T05:23:47.692Z,7.70
2018-01-15T05:26:14.349Z,8.17
2018-01-15T05:28:41.100Z,7.80
2018-01-15T05:31:07.752Z,7.87
2018-01-15T05:33:34.488Z,8.00
2018-01-15T05:36:01.202Z,7.60
2018-01-15T05:38:28.697Z,7.40
2018-01-15T05:40:55.444Z,7.17
2018-01-15T05:43:22.392Z,7.10
2018-01-15T05:45:49.240Z,7.20
2018-01-15T05:48:15.874Z,6.67
2018-01-15T05:50:42.533Z,7.00
2018-01-15T05:53:09.191Z,7.20
2018-01-15T05:55:35.812Z,6.83
2018-01-15T05:58:02.549Z,6.10
2018-01-15T06:00:29.305Z,7.43
2018-01-15T06:02:55.938Z,6.50
2018-01-15T06:05:22.588Z,6.40
2018-01-15T06:07:49.333Z,6.90
2018-01-15T06:10:16.087Z,6.30
2018-01-15T06:12:42.929Z,6.37
2018-01-15T06:15:09.772Z,6.17
2018-01-15T06:17:36.524Z,6.40
2018-01-15T06:20:03.274Z,6.73
2018-01-15T06:22:29.921Z,6.90
2018-01-15T06:24:56.568Z,7.10
2018-01-15T06:27:23.307Z,6.63
2018-01-15T06:29:50.051Z,6.80
2018-01-15T06:32:16.689Z,6.90
2018-01-15T06:34:43.340Z,5.87
2018-01-15T06:37:10.136Z,6.97
2018-01-15T06:39:37.479Z,6.60
2018-01-15T06:42:04.283Z,7.03
2018-01-15T06:44:31.050Z,6.13
2018-01-15T06:46:57.885Z,7.00
2018-01-15T06:49:24.697Z,6.40
2018-01-15T06:51:51.311Z,6.97
2018-01-15T06:54:18.736Z,7.10
2018-01-15T06:56:45.378Z,6.23
2018-01-15T06:59:12.156Z,6.10
2018-01-15T07:01:38.824Z,5.30
2018-01-15T07:04:06.239Z,5.77
2018-01-15T07:06:32.823Z,6.43
2018-01-15T07:09:00.232Z,5.87
2018-01-15T07:11:27.306Z,5.40
2018-01-15T07:13:54.181Z,5.83
2018-01-15T07:16:21.797Z,5.97
2018-01-15T07:18:48.560Z,6.73
2018-01-15T07:21:15.175Z,5.10
2018-01-15T07:23:41.867Z,5.10
2018-01-15T07:26:08.697Z,5.13
2018-01-15T07:28:35.411Z,5.40
2018-01-15T07:31:02.093Z,5.37
2018-01-15T07:36:55.069Z,5.57
2018-01-15T07:39:21.709Z,5.33
2018-01-15T07:41:49.240Z,5.47
2018-01-15T07:44:15.990Z,5.20
2018-01-15T07:46:42.650Z,5.10
2018-01-15T07:49:09.379Z,4.70
2018-01-15T07:51:36.041Z,5.63
2018-01-15T07:54:02.873Z,5.43
2018-01-15T07:56:29.612Z,7.33
2018-01-15T07:58:56.351Z,6.70
2018-01-15T08:01:23.115Z,7.40
2018-01-15T08:03:49.817Z,7.10
2018-01-15T08:06:16.628Z,6.60
2018-01-15T08:08:43.448Z,6.80
2018-01-15T08:11:10.196Z,6.70
2018-01-15T08:13:36.844Z,7.20
2018-01-15T08:16:03.891Z,7.17
2018-01-15T08:18:30.631Z,7.00
2018-01-15T08:20:57.388Z,7.83
2018-01-15T08:23:24.120Z,7.17
2018-01-15T08:25:50.875Z,8.23
2018-01-15T08:28:17.618Z,7.50
2018-01-15T08:30:44.269Z,7.03
2018-01-15T08:33:11.002Z,7.60
2018-01-15T08:35:37.655Z,7.87
2018-01-15T08:38:04.297Z,7.53
2018-01-15T08:40:30.952Z,7.50
2018-01-15T08:42:57.608Z,7.57
2018-01-15T08:45:24.423Z,7.53
2018-01-15T08:47:51.073Z,7.87
2018-01-15T08:50:17.928Z,7.47
2018-01-15T08:52:44.561Z,7.30
2018-01-15T08:55:11.207Z,8.00
2018-01-15T08:57:37.961Z,8.13
2018-01-15T09:00:04.598Z,7.60
2018-01-15T09:02:31.217Z,7.27
2018-01-15T09:04:57.925Z,7.17
2018-01-15T09:07:25.455Z,6.97
2018-01-15T09:09:52.198Z,6.97
2018-01-15T09:12:18.944Z,7.27
2018-01-15T09:14:45.584Z,6.60
2018-01-15T09:17:12.229Z,7.57
2018-01-15T09:19:38.976Z,7.53
2018-01-15T09:22:05.616Z,6.43
2018-01-15T09:24:32.364Z,6.10
2018-01-15T09:26:59.115Z,5.73
2018-01-15T09:29:25.768Z,5.63
2018-01-15T09:31:52.447Z,5.53
2018-01-15T09:34:20.793Z,5.80
2018-01-15T09:36:47.429Z,5.73
2018-01-15T09:39:14.063Z,4.97
2018-01-15T09:41:40.812Z,5.30
2018-01-15T09:44:07.563Z,4.87
2018-01-15T09:46:34.210Z,4.80
2018-01-15T09:49:00.964Z,5.30
2018-01-15T09:51:27.788Z,4.63
2018-01-15T09:53:54.538Z,5.13
2018-01-15T09:56:21.210Z,5.17
2018-01-15T09:58:47.928Z,4.47
2018-01-15T10:01:14.691Z,4.50
2018-01-15T10:03:41.427Z,3.43
2018-01-15T10:06:08.164Z,5.00
2018-01-15T10:08:35.004Z,4.67
2018-01-15T10:11:01.775Z,4.30
2018-01-15T10:13:28.408Z,4.73
2018-01-15T10:15:55.151Z,4.40
2018-01-15T10:18:21.895Z,3.90
2018-01-15T10:20:48.539Z,4.30
2018-01-15T10:23:15.411Z,3.50
2018-01-15T10:25:42.948Z,3.90
2018-01-15T10:28:09.791Z,4.00
2018-01-15T10:30:36.641Z,4.40
2018-01-15T10:33:03.288Z,3.67
2018-01-15T10:35:30.008Z,3.60
2018-01-15T10:37:56.761Z,3.63
2018-01-15T10:40:23.435Z,3.57
2018-01-15T10:42:50.232Z,3.50
2018-01-15T10:45:17.044Z,3.10
2018-01-15T10:47:43.863Z,3.40
2018-01-15T10:50:10.829Z,3.47
2018-01-15T10:52:37.588Z,4.10
2018-01-15T10:55:04.928Z,3.20
2018-01-15T10:57:31.663Z,3.40
2018-01-15T10:59:58.409Z,3.30
2018-01-15T11:02:25.873Z,3.30
2018-01-15T11:04:52.734Z,2.97
2018-01-15T11:07:19.476Z,2.87
2018-01-15T11:09:46.123Z,3.03
2018-01-15T11:12:12.752Z,2.97
2018-01-15T11:14:39.410Z,3.00
2018-01-15T11:17:06.010Z,2.87
2018-01-15T11:19:32.799Z,3.20
2018-01-15T11:21:59.396Z,2.50
2018-01-15T11:24:26.100Z,3.57
2018-01-15T11:26:52.847Z,4.50
2018-01-15T11:29:19.534Z,3.83
2018-01-15T11:31:46.183Z,4.27
2018-01-15T11:34:12.948Z,3.93
2018-01-15T11:36:39.807Z,3.70
2018-01-15T11:39:06.544Z,4.03
2018-01-15T11:41:33.188Z,4.10
2018-01-15T11:43:59.769Z,3.90
2018-01-15T11:46:27.123Z,4.37
2018-01-15T11:48:53.778Z,4.27
2018-01-15T11:51:21.194Z,4.07
2018-01-15T11:53:47.950Z,3.63
2018-01-15T11:56:14.630Z,3.60
2018-01-15T11:58:42.157Z,3.43
2018-01-15T12:01:08.885Z,3.60
2018-01-15T12:03:35.535Z,3.83
2018-01-15T12:06:02.283Z,3.83
2018-01-15T12:08:28.931Z,3.50
2018-01-15T12:10:55.592Z,3.23
2018-01-15T12:13:22.420Z,3.30
2018-01-15T12:15:49.167Z,3.70
2018-01-15T12:18:15.907Z,3.00
2018-01-15T12:20:42.554Z,3.20
2018-01-15T12:23:09.264Z,2.87
2018-01-15T12:25:36.041Z,3.13
2018-01-15T12:28:02.709Z,2.50
2018-01-15T12:30:29.598Z,3.40
2018-01-15T12:32:56.416Z,2.70
2018-01-15T12:35:23.816Z,3.20
2018-01-15T12:37:50.591Z,3.17
2018-01-15T12:40:17.226Z,2.97
2018-01-15T12:42:44.088Z,2.30
2018-01-15T12:45:10.720Z,2.80
2018-01-15T12:47:37.472Z,2.60
2018-01-15T12:50:04.312Z,2.97
2018-01-15T12:52:31.030Z,2.70
2018-01-15T12:54:57.710Z,2.77
2018-01-15T12:57:24.461Z,2.40
2018-01-15T12:59:51.193Z,2.17
2018-01-15T13:02:17.948Z,2.70
2018-01-15T13:04:44.687Z,2.37
2018-01-15T13:07:30.056Z,2.27
2018-01-15T13:09:56.825Z,2.30
2018-01-15T13:12:23.559Z,1.90
2018-01-15T13:14:50.176Z,2.10
2018-01-15T13:17:16.836Z,2.00
2018-01-15T13:19:43.551Z,2.30
2018-01-15T13:22:10.546Z,1.77
2018-01-15T13:24:37.148Z,2.00
2018-01-15T13:27:03.828Z,2.43
2018-01-15T13:29:30.569Z,1.77
2018-01-15T13:31:57.256Z,1.63
2018-01-15T13:34:24.800Z,2.07
2018-01-15T13:36:51.524Z,1.63
2018-01-15T13:39:18.286Z,2.17
2018-01-15T13:41:45.017Z,2.00
2018-01-15T13:44:11.658Z,2.07
2018-01-15T13:46:38.284Z,2.13
2018-01-15T13:49:04.948Z,1.97
2018-01-15T13:51:31.606Z,2.07
2018-01-15T13:53:58.241Z,1.70
2018-01-15T13:56:24.889Z,1.93
2018-01-15T13:58:51.625Z,1.90
2018-01-15T14:01:18.466Z,2.10
2018-01-15T14:03:45.149Z,1.90
2018-01-15T14:06:12.529Z,1.70
2018-01-15T14:08:39.316Z,1.83
2018-01-15T14:11:05.984Z,1.47
2018-01-15T14:13:32.617Z,1.37
2018-01-15T14:15:59.657Z,1.63
2018-01-15T14:18:26.372Z,1.50
2018-01-15T14:20:53.016Z,1.50
2018-01-15T14:23:19.611Z,1.90
2018-01-15T14:25:46.248Z,1.27
2018-01-15T14:28:12.847Z,1.60
2018-01-15T14:30:39.523Z,1.60
2018-01-15T14:33:06.122Z,1.43
2018-01-15T14:35:32.813Z,1.60
2018-01-15T14:37:59.453Z,1.47
2018-01-15T14:40:26.035Z,1.20
2018-01-15T14:42:53.553Z,1.40
2018-01-15T14:45:20.176Z,1.37
2018-01-15T14:47:46.860Z,1.23
2018-01-15T14:50:13.689Z,1.40
2018-01-15T14:52:40.746Z,1.50
2018-01-15T14:55:07.489Z,1.10
2018-01-15T14:57:34.345Z,1.47
2018-01-15T15:00:01.183Z,1.30
2018-01-15T15:02:28.045Z,1.20
2018-01-15T15:04:54.892Z,1.53
2018-01-15T15:07:21.737Z,1.27
2018-01-15T15:09:55.576Z,1.40
2018-01-15T15:12:22.323Z,1.33
2018-01-15T15:14:49.130Z,1.43
2018-01-15T15:17:15.944Z,0.97
2018-01-15T15:19:42.525Z,1.30
2018-01-15T15:22:09.186Z,1.10
2018-01-15T15:24:35.777Z,0.93
2018-01-15T15:27:02.376Z,1.00
2018-01-15T15:29:29.208Z,1.10
2018-01-15T15:31:55.847Z,1.20
2018-01-15T15:34:22.592Z,1.23
2018-01-15T15:36:49.438Z,1.00
2018-01-15T15:39:16.399Z,1.10
2018-01-15T15:41:43.136Z,1.30
2018-01-15T15:44:10.035Z,1.07
2018-01-15T15:46:37.685Z,1.10
2018-01-15T15:49:04.829Z,0.93
2018-01-15T15:51:31.850Z,1.00
2018-01-15T15:53:58.705Z,0.90
2018-01-15T15:56:25.559Z,1.00
2018-01-15T15:58:52.233Z,0.90
2018-01-15T16:01:19.044Z,1.23
2018-01-15T16:03:45.786Z,1.03
2018-01-15T16:06:12.636Z,1.00
2018-01-15T16:08:39.294Z,0.83
2018-01-15T16:11:06.032Z,1.10
2018-01-15T16:13:32.627Z,1.00
2018-01-15T16:15:59.282Z,1.10
2018-01-15T16:18:25.893Z,1.00
2018-01-15T16:20:53.256Z,0.73
2018-01-15T16:23:20.709Z,0.80
2018-01-15T16:25:48.221Z,1.00
2018-01-15T16:28:15.004Z,0.80
2018-01-15T16:30:41.658Z,1.00
2018-01-15T16:33:09.028Z,1.00
2018-01-15T16:35:36.581Z,0.80
2018-01-15T16:38:03.156Z,1.10
2018-01-15T16:40:30.640Z,0.93
2018-01-15T16:42:57.365Z,0.80
2018-01-15T16:45:24.047Z,0.70
2018-01-15T16:47:50.804Z,1.00
2018-01-15T16:50:23.889Z,1.23
2018-01-15T16:52:50.625Z,0.70
2018-01-15T16:55:17.291Z,0.90
2018-01-15T16:57:44.130Z,0.70
2018-01-15T17:00:10.795Z,0.90
2018-01-15T17:02:37.564Z,0.83
2018-01-15T17:05:05.074Z,0.77
2018-01-15T17:07:31.831Z,1.20
2018-01-15T17:09:58.881Z,0.90
2018-01-15T17:12:25.633Z,0.80
2018-01-15T17:14:52.472Z,0.80
2018-01-15T17:17:19.421Z,0.83
2018-01-15T17:19:46.065Z,1.07
2018-01-15T17:22:12.892Z,1.10
2018-01-15T17:24:39.573Z,0.77
2018-01-15T17:27:06.203Z,0.80
2018-01-15T17:29:32.945Z,1.00
2018-01-15T17:31:59.687Z,0.60
2018-01-15T17:34:26.382Z,0.80
2018-01-15T17:36:53.927Z,0.70
2018-01-15T17:39:20.580Z,0.70
2018-01-15T17:41:48.104Z,0.90
2018-01-15T17:44:14.770Z,0.80
2018-01-15T17:46:41.613Z,0.70
2018-01-15T17:49:08.345Z,0.60
2018-01-15T17:51:35.121Z,0.70
2018-01-15T17:54:01.870Z,1.07
2018-01-15T17:56:29.300Z,0.70
2018-01-15T17:58:56.057Z,0.80
2018-01-15T18:01:22.704Z,0.80
2018-01-15T18:03:49.296Z,0.70
2018-01-15T18:06:15.988Z,0.80
2018-01-15T18:08:42.611Z,0.90
2018-01-15T18:11:09.280Z,0.70
2018-01-15T18:13:36.640Z,0.93
2018-01-15T18:16:03.387Z,0.80
2018-01-15T18:18:29.991Z,0.90
2018-01-15T18:20:56.894Z,0.70
2018-01-15T18:23:24.429Z,0.60
2018-01-15T18:25:51.066Z,0.70
2018-01-15T18:28:17.685Z,0.60
2018-01-15T18:30:44.288Z,0.70
2018-01-15T18:33:11.924Z,0.60
2018-01-15T18:35:38.523Z,0.60
2018-01-15T18:38:05.308Z,0.70
2018-01-15T18:40:32.152Z,0.60
2018-01-15T18:42:58.796Z,0.67
2018-01-15T18:45:25.467Z,0.50
2018-01-15T18:47:52.292Z,0.73
2018-01-15T18:50:18.963Z,0.60
2018-01-15T18:52:45.870Z,0.70
2018-01-15T18:55:12.539Z,0.80
2018-01-15T18:57:39.176Z,0.77
2018-01-15T19:00:06.040Z,0.60
2018-01-15T19:02:32.864Z,0.73
2018-01-15T19:04:59.534Z,0.63
2018-01-15T19:07:27.227Z,0.40
2018-01-15T19:09:54.665Z,0.73
2018-01-15T19:12:21.594Z,0.80
2018-01-15T19:14:48.342Z,1.30
2018-01-15T19:17:15.086Z,0.90
2018-01-15T19:19:41.732Z,1.10
2018-01-15T19:22:08.560Z,0.97
2018-01-15T19:24:35.348Z,1.07
2018-01-15T19:27:02.985Z,0.90
2018-01-15T19:29:29.919Z,0.80
2018-01-15T19:31:56.852Z,1.43
2018-01-15T19:40:32.166Z,0.80
2018-01-15T19:43:05.840Z,0.67
2018-01-15T19:45:38.568Z,0.93
2018-01-15T19:48:12.127Z,0.90
2018-01-15T19:50:44.968Z,0.70
2018-01-15T19:53:17.793Z,0.70
2018-01-15T19:55:48.608Z,0.83
2018-01-15T19:58:21.681Z,0.97
2018-01-15T20:04:07.726Z,0.80
2018-01-15T20:06:40.588Z,1.57
2018-01-15T20:09:13.446Z,1.50
2018-01-15T20:11:40.252Z,1.20
2018-01-15T20:14:07.743Z,1.70
2018-01-15T20:16:34.443Z,1.40
2018-01-15T20:19:01.178Z,1.20
2018-01-15T20:21:27.828Z,1.77
2018-01-15T20:23:54.804Z,1.97
2018-01-15T20:26:22.190Z,1.70
2018-01-15T20:28:49.037Z,1.70
2018-01-15T20:31:15.954Z,1.53
2018-01-15T20:33:42.675Z,1.77
2018-01-15T20:36:09.431Z,1.40
2018-01-15T20:38:36.160Z,1.33
2018-01-15T20:41:02.921Z,1.30
2018-01-15T20:43:29.566Z,1.37
2018-01-15T20:45:56.214Z,1.27
2018-01-15T20:48:22.951Z,1.60
2018-01-15T20:50:49.595Z,1.63
2018-01-15T20:53:16.394Z,1.43
2018-01-15T20:55:43.057Z,1.63
2018-01-15T20:58:09.932Z,1.40
2018-01-15T21:00:38.617Z,1.40
2018-01-15T21:03:05.473Z,1.80
2018-01-15T21:05:33.671Z,1.57
2018-01-15T21:08:00.423Z,1.77
2018-01-15T21:10:27.814Z,2.03
2018-01-15T21:12:54.524Z,1.60
2018-01-15T21:15:21.255Z,1.87
2018-01-15T21:17:47.897Z,1.60
2018-01-15T21:20:14.668Z,1.50
2018-01-15T21:22:42.160Z,1.57
2018-01-15T21:25:08.922Z,1.60
2018-01-15T21:27:35.619Z,1.73
2018-01-15T21:30:02.461Z,1.63
2018-01-15T21:32:29.930Z,1.80
2018-01-15T21:34:57.402Z,1.70
2018-01-15T21:37:24.127Z,1.67
2018-01-15T21:39:57.825Z,1.50
2018-01-15T21:42:24.620Z,1.40
2018-01-15T21:44:51.502Z,1.50
2018-01-15T21:47:18.155Z,1.73
2018-01-15T21:49:44.821Z,1.60
2018-01-15T21:52:13.343Z,1.43
2018-01-15T21:54:40.129Z,1.43
2018-01-15T21:57:06.868Z,1.60
2018-01-15T21:59:33.526Z,1.30
2018-01-15T22:02:00.275Z,1.40
2018-01-15T22:04:27.042Z,1.93
2018-01-15T22:06:54.514Z,1.30
2018-01-15T22:09:21.946Z,1.20
2018-01-15T22:11:48.683Z,1.53
2018-01-15T22:14:15.558Z,1.40
2018-01-15T22:19:23.956Z,1.20
2018-01-15T22:21:50.714Z,1.23
2018-01-15T22:24:17.546Z,1.13
2018-01-15T22:26:44.292Z,1.00
2018-01-15T22:29:11.041Z,1.17
2018-01-15T22:31:37.891Z,1.20
2018-01-15T22:34:04.695Z,1.10
2018-01-15T22:36:31.596Z,0.97
2018-01-15T22:38:58.398Z,1.40
2018-01-15T22:41:25.013Z,1.20
2018-01-15T22:43:52.449Z,1.37
2018-01-15T22:46:19.212Z,1.43
2018-01-15T22:48:46.659Z,1.60
2018-01-15T22:51:13.313Z,1.20
2018-01-15T22:53:39.911Z,1.10
2018-01-15T22:56:06.612Z,1.43
2018-01-15T22:58:34.136Z,1.07
2018-01-15T23:01:00.856Z,1.20
2018-01-15T23:03:27.931Z,1.20
2018-01-15T23:05:54.782Z,1.90
2018-01-15T23:08:21.426Z,1.37
2018-01-15T23:10:48.236Z,1.40
2018-01-15T23:13:14.883Z,1.80
2018-01-15T23:15:41.465Z,1.00
2018-01-15T23:18:08.916Z,1.50
2018-01-15T23:20:35.672Z,1.33
2018-01-15T23:23:03.229Z,1.20
2018-01-15T23:25:30.698Z,1.20
2018-01-15T23:27:57.348Z,0.90
2018-01-15T23:30:23.983Z,1.20
2018-01-15T23:32:50.559Z,1.33
2018-01-15T23:35:18.089Z,1.20
2018-01-15T23:37:44.746Z,1.30
2018-01-15T23:40:11.544Z,1.03
2018-01-15T23:42:38.330Z,1.00
2018-01-15T23:45:05.182Z,1.50
2018-01-15T23:47:31.868Z,1.20
2018-01-15T23:49:59.386Z,0.80
2018-01-15T23:52:26.119Z,1.30
2018-01-15T23:54:52.785Z,1.20
2018-01-15T23:57:19.516Z,1.07
2018-01-15T23:59:46.255Z,1.20
